createdAt,value
2023-11-22T00:00:23.601Z,99.90
2023-11-22T00:02:50.385Z,99.90
2023-11-22T00:05:17.905Z,99.90
2023-11-22T00:07:44.710Z,99.90
2023-11-22T00:10:11.492Z,99.90
2023-11-22T00:12:39.278Z,99.90
2023-11-22T00:15:07.749Z,99.90
2023-11-22T00:17:38.055Z,99.90
2023-11-22T00:20:07.194Z,99.90
2023-11-22T00:22:34.312Z,99.90
2023-11-22T00:25:04.740Z,99.90
2023-11-22T00:27:32.464Z,99.90
2023-11-22T00:30:00.325Z,99.90
2023-11-22T00:32:27.466Z,99.90
2023-11-22T00:34:54.281Z,99.90
2023-11-22T00:37:21.204Z,99.90
2023-11-22T00:39:48.061Z,99.90
2023-11-22T00:42:14.869Z,99.90
2023-11-22T00:44:42.075Z,99.90
2023-11-22T00:47:08.918Z,99.90
2023-11-22T00:49:35.738Z,99.90
2023-11-22T00:52:04.462Z,99.90
2023-11-22T00:54:31.421Z,99.90
2023-11-22T00:56:58.211Z,99.90
2023-11-22T00:59:25.125Z,99.90
2023-11-22T01:01:51.963Z,99.90
2023-11-22T01:04:18.826Z,99.90
2023-11-22T01:06:45.750Z,99.90
2023-11-22T01:09:15.018Z,99.90
2023-11-22T01:11:42.083Z,99.90
2023-11-22T01:14:08.986Z,99.90
2023-11-22T01:16:38.079Z,99.90
2023-11-22T01:19:05.308Z,99.90
2023-11-22T01:21:32.504Z,99.90
2023-11-22T01:23:59.397Z,99.90
2023-11-22T01:26:26.520Z,99.90
2023-11-22T01:28:53.422Z,99.90
2023-11-22T01:31:22.294Z,99.90
2023-11-22T01:33:49.229Z,99.90
2023-11-22T01:36:18.889Z,99.90
2023-11-22T01:38:47.189Z,99.90
2023-11-22T01:41:14.831Z,99.90
2023-11-22T01:43:42.649Z,99.90
2023-11-22T01:46:24.976Z,99.90
2023-11-22T01:48:53.634Z,99.90
2023-11-22T01:51:25.139Z,99.90
2023-11-22T01:53:57.940Z,99.90
2023-11-22T01:56:27.663Z,99.90
2023-11-22T01:58:56.286Z,99.90
2023-11-22T02:01:23.673Z,99.90
2023-11-22T02:03:50.689Z,99.90
2023-11-22T02:06:17.720Z,99.90
2023-11-22T02:08:44.854Z,99.90
2023-11-22T02:11:12.050Z,99.90
2023-11-22T02:13:38.940Z,99.90
2023-11-22T02:16:06.256Z,99.90
2023-11-22T02:18:33.081Z,99.90
2023-11-22T02:21:00.418Z,99.90
2023-11-22T02:23:27.767Z,99.90
2023-11-22T02:25:55.003Z,99.90
2023-11-22T02:28:22.408Z,99.90
2023-11-22T02:30:49.161Z,99.90
2023-11-22T02:33:15.955Z,99.90
2023-11-22T02:35:43.294Z,99.90
2023-11-22T02:38:10.301Z,99.90
2023-11-22T02:40:37.172Z,99.90
2023-11-22T02:43:08.615Z,99.90
2023-11-22T02:45:36.155Z,99.90
2023-11-22T02:48:04.631Z,99.90
2023-11-22T02:50:35.574Z,99.90
2023-11-22T02:53:03.230Z,99.90
2023-11-22T02:55:30.302Z,99.90
2023-11-22T02:57:57.236Z,99.90
2023-11-22T03:00:25.295Z,99.90
2023-11-22T03:02:55.620Z,99.90
2023-11-22T03:05:23.496Z,99.90
2023-11-22T03:07:52.485Z,99.90
2023-11-22T03:10:19.414Z,99.90
2023-11-22T03:12:46.264Z,99.90
2023-11-22T03:15:13.356Z,99.90
2023-11-22T03:17:40.461Z,99.90
2023-11-22T03:20:12.174Z,99.90
2023-11-22T03:22:39.486Z,99.90
2023-11-22T03:25:06.615Z,99.90
2023-11-22T03:27:33.783Z,99.90
2023-11-22T03:30:01.348Z,99.90
2023-11-22T03:32:29.494Z,99.90
2023-11-22T03:34:57.499Z,99.90
2023-11-22T03:37:25.488Z,99.90
2023-11-22T03:39:52.315Z,99.90
2023-11-22T03:42:19.148Z,99.90
2023-11-22T03:44:46.060Z,99.90
2023-11-22T03:47:15.879Z,99.90
2023-11-22T03:49:44.041Z,99.90
2023-11-22T03:52:12.613Z,99.90
2023-11-22T03:54:40.500Z,99.90
2023-11-22T03:57:07.320Z,99.90
2023-11-22T03:59:36.035Z,99.90
2023-11-22T04:02:02.884Z,99.90
2023-11-22T04:04:29.600Z,99.90
2023-11-22T04:06:56.374Z,99.90
2023-11-22T04:09:23.618Z,99.90
2023-11-22T04:11:50.475Z,99.90
2023-11-22T04:14:17.645Z,99.90
2023-11-22T04:16:44.693Z,99.90
2023-11-22T04:19:11.610Z,99.90
2023-11-22T04:21:38.726Z,99.90
2023-11-22T04:24:06.149Z,99.90
2023-11-22T04:26:32.952Z,99.90
2023-11-22T04:29:00.462Z,99.90
2023-11-22T04:31:27.207Z,99.90
2023-11-22T04:33:55.395Z,99.90
2023-11-22T04:36:25.032Z,99.90
2023-11-22T04:38:52.363Z,99.90
2023-11-22T04:41:19.591Z,99.90
2023-11-22T04:43:46.559Z,99.90
2023-11-22T04:46:13.943Z,99.90
2023-11-22T04:48:41.921Z,99.90
2023-11-22T04:51:08.857Z,99.90
2023-11-22T04:53:35.658Z,99.90
2023-11-22T04:56:06.431Z,99.90
2023-11-22T04:58:34.798Z,99.90
2023-11-22T05:01:03.007Z,99.90
2023-11-22T05:03:29.962Z,99.90
2023-11-22T05:05:57.222Z,99.90
2023-11-22T05:08:24.133Z,99.90
2023-11-22T05:10:52.044Z,99.90
2023-11-22T05:13:19.873Z,99.90
2023-11-22T05:15:46.563Z,99.90
2023-11-22T05:18:13.305Z,99.90
2023-11-22T05:20:40.276Z,99.90
2023-11-22T05:23:07.133Z,99.90
2023-11-22T05:25:33.966Z,99.90
2023-11-22T05:28:00.825Z,99.90
2023-11-22T05:30:27.800Z,99.90
2023-11-22T05:32:54.808Z,99.90
2023-11-22T05:35:21.660Z,99.90
2023-11-22T05:37:49.067Z,99.90
2023-11-22T05:40:17.072Z,99.90
2023-11-22T05:42:44.381Z,99.90
2023-11-22T05:45:11.458Z,99.90
2023-11-22T05:47:38.613Z,99.90
2023-11-22T05:50:07.166Z,99.90
2023-11-22T05:52:34.139Z,99.90
2023-11-22T05:55:04.701Z,99.90
2023-11-22T05:57:32.222Z,99.90
2023-11-22T05:59:59.002Z,99.90
2023-11-22T06:02:25.987Z,99.90
2023-11-22T06:04:52.933Z,99.90
2023-11-22T06:07:19.815Z,99.90
2023-11-22T06:09:46.676Z,99.90
2023-11-22T06:12:13.596Z,99.90
2023-11-22T06:14:40.368Z,99.90
2023-11-22T06:17:07.255Z,99.90
2023-11-22T06:19:34.115Z,99.90
2023-11-22T06:22:02.305Z,99.90
2023-11-22T06:24:29.512Z,99.90
2023-11-22T06:26:56.663Z,99.90
2023-11-22T06:29:23.569Z,99.90
2023-11-22T06:31:50.348Z,99.90
2023-11-22T06:34:17.203Z,99.90
2023-11-22T06:36:44.351Z,99.90
2023-11-22T06:39:14.476Z,99.90
2023-11-22T06:41:44.138Z,99.90
2023-11-22T06:44:11.058Z,99.90
2023-11-22T06:46:38.075Z,99.90
2023-11-22T06:49:06.042Z,99.90
2023-11-22T06:51:33.023Z,99.90
2023-11-22T06:54:01.784Z,99.90
2023-11-22T06:56:29.216Z,99.90
2023-11-22T06:58:56.195Z,99.90
2023-11-22T07:01:28.873Z,99.90
2023-11-22T07:03:56.430Z,99.90
2023-11-22T07:06:23.672Z,99.90
2023-11-22T07:08:51.161Z,99.90
2023-11-22T07:11:24.851Z,99.90
2023-11-22T07:13:52.829Z,99.90
2023-11-22T07:16:20.276Z,99.90
2023-11-22T07:18:47.123Z,99.90
2023-11-22T07:21:13.912Z,99.90
2023-11-22T07:23:40.741Z,99.90
2023-11-22T07:26:08.003Z,99.90
2023-11-22T07:28:36.918Z,99.90
2023-11-22T07:31:07.196Z,99.90
2023-11-22T07:33:34.539Z,99.90
2023-11-22T07:36:01.304Z,99.90
2023-11-22T07:38:28.655Z,99.90
2023-11-22T07:40:55.542Z,99.90
2023-11-22T07:43:22.263Z,99.90
2023-11-22T07:45:49.900Z,99.90
2023-11-22T07:48:16.951Z,99.90
2023-11-22T07:50:50.086Z,99.90
2023-11-22T07:53:18.798Z,99.90
2023-11-22T07:55:45.870Z,99.90
2023-11-22T07:58:12.630Z,99.90
2023-11-22T08:00:39.426Z,99.90
2023-11-22T08:03:07.890Z,99.90
2023-11-22T08:05:41.255Z,99.90
2023-11-22T08:08:09.400Z,99.90
2023-11-22T08:10:36.961Z,99.90
2023-11-22T08:13:04.592Z,99.90
2023-11-22T08:15:34.991Z,99.90
2023-11-22T08:18:02.038Z,99.90
2023-11-22T08:20:29.229Z,99.90
2023-11-22T08:22:56.054Z,99.90
2023-11-22T08:25:22.817Z,99.90
2023-11-22T08:27:50.593Z,99.90
2023-11-22T08:30:18.824Z,99.90
2023-11-22T08:32:52.542Z,99.90
2023-11-22T08:35:19.479Z,99.90
2023-11-22T08:37:48.245Z,99.90
2023-11-22T08:40:15.652Z,99.90
2023-11-22T08:42:43.186Z,99.90
2023-11-22T08:45:12.895Z,99.90
2023-11-22T08:47:43.313Z,99.90
2023-11-22T08:50:13.591Z,99.90
2023-11-22T08:52:40.644Z,99.90
2023-11-22T08:55:08.538Z,99.90
2023-11-22T08:57:39.112Z,99.90
2023-11-22T09:00:10.478Z,99.90
2023-11-22T09:02:38.535Z,99.90
2023-11-22T09:05:09.071Z,99.90
2023-11-22T09:07:37.042Z,99.90
2023-11-22T09:10:11.537Z,99.90
2023-11-22T09:12:41.830Z,99.90
2023-11-22T09:15:18.482Z,99.90
2023-11-22T09:17:47.256Z,99.90
2023-11-22T09:20:15.755Z,99.90
2023-11-22T09:22:49.590Z,99.90
2023-11-22T09:25:23.753Z,99.90
2023-11-22T09:27:52.941Z,99.90
2023-11-22T09:30:36.125Z,99.90
2023-11-22T09:33:05.048Z,99.90
2023-11-22T09:35:33.054Z,99.90
2023-11-22T09:38:03.615Z,99.90
2023-11-22T09:40:33.030Z,99.90
2023-11-22T09:43:03.008Z,99.90
2023-11-22T09:45:31.947Z,99.90
2023-11-22T09:48:02.183Z,99.90
2023-11-22T09:50:48.225Z,99.90
2023-11-22T09:53:30.943Z,99.90
2023-11-22T09:55:59.951Z,99.90
2023-11-22T09:58:30.473Z,99.90
2023-11-22T10:00:58.034Z,99.90
2023-11-22T10:03:27.396Z,99.90
2023-11-22T10:05:55.344Z,99.90
2023-11-22T10:08:23.785Z,99.90
2023-11-22T10:10:52.403Z,99.90
2023-11-22T10:13:21.293Z,99.90
2023-11-22T10:15:52.332Z,99.90
2023-11-22T10:18:19.680Z,99.90
2023-11-22T10:20:50.363Z,99.90
2023-11-22T10:23:25.816Z,99.90
2023-11-22T10:25:54.486Z,99.90
2023-11-22T10:28:22.474Z,99.90
2023-11-22T10:30:53.448Z,99.90
2023-11-22T10:33:24.177Z,99.90
2023-11-22T10:35:55.097Z,99.90
2023-11-22T10:38:22.569Z,99.90
2023-11-22T10:40:49.462Z,99.90
2023-11-22T10:43:17.719Z,99.90
2023-11-22T10:45:49.961Z,99.90
2023-11-22T10:48:17.625Z,99.90
2023-11-22T10:50:45.717Z,99.90
2023-11-22T10:53:14.788Z,99.90
2023-11-22T10:55:48.070Z,99.90
2023-11-22T10:58:16.385Z,99.90
2023-11-22T11:00:45.186Z,99.90
2023-11-22T11:03:22.408Z,99.90
2023-11-22T11:05:59.057Z,99.90
2023-11-22T11:08:30.234Z,99.90
2023-11-22T11:10:59.485Z,99.90
2023-11-22T11:13:26.468Z,99.90
2023-11-22T11:15:55.173Z,99.90
2023-11-22T11:18:22.469Z,97.10
2023-11-22T11:20:52.327Z,81.20
2023-11-22T11:23:21.733Z,59.60
2023-11-22T11:25:56.373Z,50.20
2023-11-22T11:28:29.335Z,45.20
2023-11-22T11:30:56.143Z,42.20
2023-11-22T11:33:34.343Z,40.20
2023-11-22T11:36:04.929Z,38.00
2023-11-22T11:38:35.811Z,36.40
2023-11-22T11:41:12.966Z,35.00
2023-11-22T11:43:50.288Z,32.70
2023-11-22T11:46:17.865Z,33.90
2023-11-22T11:48:55.056Z,35.20
2023-11-22T11:51:24.508Z,34.50
2023-11-22T11:53:51.828Z,34.70
2023-11-22T11:56:19.060Z,33.80
2023-11-22T11:58:47.383Z,33.60
2023-11-22T12:01:15.129Z,33.80
2023-11-22T12:03:42.003Z,33.10
2023-11-22T12:06:09.207Z,31.50
2023-11-22T12:08:39.467Z,31.40
2023-11-22T12:11:09.339Z,30.80
2023-11-22T12:13:39.879Z,29.60
2023-11-22T12:16:12.098Z,28.60
2023-11-22T12:18:44.397Z,28.50
2023-11-22T12:21:15.930Z,27.80
2023-11-22T12:23:44.401Z,28.10
2023-11-22T12:26:14.141Z,28.40
2023-11-22T12:28:48.350Z,27.70
2023-11-22T12:31:21.094Z,27.90
2023-11-22T12:33:51.620Z,28.30
2023-11-22T12:36:19.837Z,27.70
2023-11-22T12:38:48.202Z,26.50
2023-11-22T12:41:15.958Z,25.50
2023-11-22T12:43:48.812Z,25.20
2023-11-22T12:46:19.092Z,25.60
2023-11-22T12:48:46.327Z,25.70
2023-11-22T12:51:18.091Z,25.70
2023-11-22T12:53:51.534Z,25.60
2023-11-22T12:56:18.981Z,26.00
2023-11-22T12:58:45.912Z,27.30
2023-11-22T13:01:12.780Z,26.60
2023-11-22T13:03:39.726Z,26.60
2023-11-22T13:06:07.393Z,26.60
2023-11-22T13:08:35.778Z,26.00
2023-11-22T13:11:02.680Z,25.70
2023-11-22T13:13:31.580Z,25.60
2023-11-22T13:15:58.613Z,27.10
2023-11-22T13:18:27.575Z,26.70
2023-11-22T13:20:54.562Z,27.70
2023-11-22T13:23:21.900Z,26.20
2023-11-22T13:25:49.820Z,26.20
2023-11-22T13:28:18.134Z,25.90
2023-11-22T13:30:45.204Z,25.60
2023-11-22T13:33:12.930Z,25.20
2023-11-22T13:35:40.210Z,25.50
2023-11-22T13:38:12.123Z,25.70
2023-11-22T13:40:46.690Z,25.40
2023-11-22T13:43:18.407Z,24.80
2023-11-22T13:45:46.640Z,24.30
2023-11-22T13:48:14.005Z,25.10
2023-11-22T13:50:41.026Z,25.30
2023-11-22T13:53:10.788Z,25.70
2023-11-22T13:55:38.187Z,26.70
2023-11-22T13:58:06.436Z,26.40
2023-11-22T14:00:36.331Z,26.10
2023-11-22T14:03:08.808Z,26.50
2023-11-22T14:05:38.803Z,27.00
2023-11-22T14:08:09.982Z,26.50
2023-11-22T14:10:36.812Z,27.30
2023-11-22T14:13:05.009Z,30.20
2023-11-22T14:15:32.923Z,33.60
2023-11-22T14:18:00.034Z,37.10
2023-11-22T14:20:27.418Z,41.70
2023-11-22T14:22:54.636Z,42.30
2023-11-22T14:25:22.021Z,43.30
2023-11-22T14:27:55.830Z,45.00
2023-11-22T14:30:23.039Z,47.10
2023-11-22T14:32:52.526Z,50.30
2023-11-22T14:35:19.813Z,51.60
2023-11-22T14:37:46.658Z,52.00
2023-11-22T14:40:21.562Z,54.00
2023-11-22T14:42:53.581Z,54.60
2023-11-22T14:45:23.715Z,56.60
2023-11-22T14:47:53.502Z,59.10
2023-11-22T14:50:22.112Z,62.40
2023-11-22T14:52:51.095Z,64.70
2023-11-22T14:55:19.936Z,65.90
2023-11-22T14:57:46.770Z,69.10
2023-11-22T15:00:15.762Z,72.00
2023-11-22T15:02:44.379Z,73.00
2023-11-22T15:05:12.406Z,74.80
2023-11-22T15:07:42.449Z,76.30
2023-11-22T15:10:10.921Z,79.40
2023-11-22T15:12:38.368Z,80.20
2023-11-22T15:15:05.441Z,81.10
2023-11-22T15:17:32.866Z,82.20
2023-11-22T15:19:59.792Z,84.60
2023-11-22T15:22:27.211Z,87.70
2023-11-22T15:24:54.712Z,89.00
2023-11-22T15:27:21.605Z,89.40
2023-11-22T15:29:48.422Z,91.80
2023-11-22T15:32:15.445Z,91.50
2023-11-22T15:34:42.389Z,91.50
2023-11-22T15:37:12.125Z,92.70
2023-11-22T15:39:38.956Z,92.60
2023-11-22T15:42:08.756Z,94.40
2023-11-22T15:44:35.952Z,95.50
2023-11-22T15:47:12.726Z,96.40
2023-11-22T15:49:41.594Z,97.30
2023-11-22T15:52:08.412Z,99.00
2023-11-22T15:54:35.204Z,99.90
2023-11-22T15:57:02.323Z,99.90
2023-11-22T15:59:29.815Z,99.90
2023-11-22T16:01:56.815Z,99.90
2023-11-22T16:04:23.886Z,99.90
2023-11-22T16:06:52.030Z,99.90
2023-11-22T16:09:19.696Z,99.90
2023-11-22T16:11:47.115Z,99.90
2023-11-22T16:14:16.139Z,99.90
2023-11-22T16:16:43.160Z,99.90
2023-11-22T16:19:11.689Z,99.90
2023-11-22T16:21:40.163Z,99.90
2023-11-22T16:24:07.345Z,99.90
2023-11-22T16:26:34.302Z,99.90
2023-11-22T16:29:01.064Z,99.90
2023-11-22T16:31:27.875Z,99.90
2023-11-22T16:33:56.151Z,99.90
2023-11-22T16:36:24.469Z,99.90
2023-11-22T16:38:53.098Z,99.90
2023-11-22T16:41:22.077Z,99.90
2023-11-22T16:43:49.027Z,99.90
2023-11-22T16:46:15.870Z,99.90
2023-11-22T16:48:43.166Z,99.90
2023-11-22T16:51:10.119Z,99.90
2023-11-22T16:53:41.433Z,99.90
2023-11-22T16:56:08.786Z,99.90
2023-11-22T16:58:35.538Z,99.90
2023-11-22T17:01:02.397Z,99.90
2023-11-22T17:03:29.437Z,99.90
2023-11-22T17:05:56.292Z,99.90
2023-11-22T17:08:23.708Z,99.90
2023-11-22T17:10:50.492Z,99.90
2023-11-22T17:13:17.504Z,99.90
2023-11-22T17:15:45.641Z,99.90
2023-11-22T17:18:14.328Z,99.90
2023-11-22T17:20:43.079Z,99.90
2023-11-22T17:23:10.967Z,99.90
2023-11-22T17:25:37.881Z,99.90
2023-11-22T17:28:04.877Z,99.90
2023-11-22T17:30:31.681Z,99.90
2023-11-22T17:32:58.565Z,99.90
2023-11-22T17:35:26.445Z,99.90
2023-11-22T17:37:58.759Z,99.90
2023-11-22T17:40:26.789Z,99.90
2023-11-22T17:42:53.873Z,99.90
2023-11-22T17:45:20.693Z,99.90
2023-11-22T17:47:47.787Z,99.90
2023-11-22T17:50:18.523Z,99.90
2023-11-22T17:52:46.988Z,99.90
2023-11-22T17:55:15.036Z,99.90
2023-11-22T17:57:42.604Z,99.90
2023-11-22T18:00:10.864Z,99.90
2023-11-22T18:02:39.688Z,99.90
2023-11-22T18:05:07.456Z,99.90
2023-11-22T18:07:34.656Z,99.90
2023-11-22T18:10:01.746Z,99.90
2023-11-22T18:12:28.579Z,99.90
2023-11-22T18:14:55.624Z,99.90
2023-11-22T18:17:23.013Z,99.90
2023-11-22T18:19:49.800Z,99.90
2023-11-22T18:22:16.607Z,99.90
2023-11-22T18:24:43.606Z,99.90
2023-11-22T18:27:10.426Z,99.90
2023-11-22T18:29:37.155Z,99.90
2023-11-22T18:32:04.393Z,99.90
2023-11-22T18:34:34.516Z,99.90
2023-11-22T18:37:03.993Z,99.90
2023-11-22T18:39:33.190Z,99.90
2023-11-22T18:41:59.989Z,99.90
2023-11-22T18:44:26.732Z,99.90
2023-11-22T18:46:53.483Z,99.90
2023-11-22T18:49:21.238Z,99.90
2023-11-22T18:51:48.406Z,99.90
2023-11-22T18:54:15.322Z,99.90
2023-11-22T18:56:45.051Z,99.90
2023-11-22T18:59:12.039Z,99.90
2023-11-22T19:01:39.002Z,99.90
2023-11-22T19:04:07.935Z,99.90
2023-11-22T19:06:34.737Z,99.90
2023-11-22T19:09:01.771Z,99.90
2023-11-22T19:11:28.621Z,99.90
2023-11-22T19:13:55.879Z,99.90
2023-11-22T19:16:22.660Z,99.90
2023-11-22T19:18:49.664Z,99.90
2023-11-22T19:21:20.662Z,99.90
2023-11-22T19:23:47.514Z,99.90
2023-11-22T19:26:21.676Z,99.90
2023-11-22T19:28:48.692Z,99.90
2023-11-22T19:31:15.456Z,99.90
2023-11-22T19:33:42.410Z,99.90
2023-11-22T19:36:10.055Z,99.90
2023-11-22T19:38:38.991Z,99.90
2023-11-22T19:41:05.743Z,99.90
2023-11-22T19:43:32.534Z,99.90
2023-11-22T19:45:59.356Z,99.90
2023-11-22T19:48:26.221Z,99.90
2023-11-22T19:50:53.141Z,99.90
2023-11-22T19:53:19.961Z,99.90
2023-11-22T19:55:47.437Z,99.90
2023-11-22T19:58:15.559Z,99.90
2023-11-22T20:00:43.744Z,99.90
2023-11-22T20:03:11.482Z,99.90
2023-11-22T20:05:39.015Z,99.90
2023-11-22T20:08:05.827Z,99.90
2023-11-22T20:10:32.603Z,99.90
2023-11-22T20:12:59.353Z,99.90
2023-11-22T20:15:26.107Z,99.90
2023-11-22T20:17:53.004Z,99.90
2023-11-22T20:20:20.436Z,99.90
2023-11-22T20:22:47.204Z,99.90
2023-11-22T20:25:13.999Z,99.90
2023-11-22T20:27:41.157Z,99.90
2023-11-22T20:30:08.645Z,99.90
2023-11-22T20:32:35.564Z,99.90
2023-11-22T20:35:02.731Z,99.90
2023-11-22T20:37:29.644Z,99.90
2023-11-22T20:39:56.501Z,99.90
2023-11-22T20:42:24.362Z,99.90
2023-11-22T20:44:51.295Z,99.90
2023-11-22T20:47:18.112Z,99.90
2023-11-22T20:49:45.132Z,99.90
2023-11-22T20:52:11.979Z,99.90
2023-11-22T20:54:38.773Z,99.90
2023-11-22T20:57:07.566Z,99.90
2023-11-22T20:59:34.589Z,99.90
2023-11-22T21:02:01.656Z,99.90
2023-11-22T21:04:28.805Z,99.90
2023-11-22T21:06:55.557Z,99.90
2023-11-22T21:09:22.676Z,99.90
2023-11-22T21:11:49.729Z,99.90
2023-11-22T21:14:17.351Z,99.90
2023-11-22T21:16:44.821Z,99.90
2023-11-22T21:19:12.910Z,99.90
2023-11-22T21:21:40.201Z,99.90
2023-11-22T21:24:07.537Z,99.90
2023-11-22T21:26:34.823Z,99.90
2023-11-22T21:29:01.817Z,99.90
2023-11-22T21:31:29.740Z,99.90
2023-11-22T21:33:57.058Z,99.90
2023-11-22T21:36:23.797Z,99.90
2023-11-22T21:38:50.665Z,99.90
2023-11-22T21:41:17.698Z,99.90
2023-11-22T21:43:44.790Z,99.90
2023-11-22T21:46:18.289Z,99.90
2023-11-22T21:48:45.543Z,99.90
2023-11-22T21:51:13.758Z,99.90
2023-11-22T21:53:41.546Z,99.90
2023-11-22T21:56:09.450Z,99.90
2023-11-22T21:58:36.380Z,99.90
2023-11-22T22:01:03.429Z,99.90
2023-11-22T22:03:30.360Z,99.90
2023-11-22T22:05:57.491Z,99.90
2023-11-22T22:08:24.496Z,99.90
2023-11-22T22:10:51.676Z,99.90
2023-11-22T22:13:20.713Z,99.90
2023-11-22T22:15:47.735Z,99.90
2023-11-22T22:18:14.642Z,99.90
2023-11-22T22:20:51.325Z,99.90
2023-11-22T22:23:22.767Z,99.90
2023-11-22T22:25:49.492Z,99.90
2023-11-22T22:28:16.271Z,99.90
2023-11-22T22:30:43.143Z,99.90
2023-11-22T22:33:10.196Z,99.90
2023-11-22T22:35:36.975Z,99.90
2023-11-22T22:38:05.443Z,99.90
2023-11-22T22:40:32.464Z,99.90
2023-11-22T22:42:59.258Z,99.90
2023-11-22T22:45:26.085Z,99.90
2023-11-22T22:47:53.457Z,99.90
2023-11-22T22:50:20.794Z,99.90
2023-11-22T22:52:48.098Z,99.90
2023-11-22T22:55:15.254Z,99.90
2023-11-22T22:57:44.055Z,99.90
2023-11-22T23:00:24.180Z,99.90
2023-11-22T23:02:51.053Z,99.90
2023-11-22T23:05:24.524Z,99.90
2023-11-22T23:07:53.456Z,99.90
2023-11-22T23:10:20.551Z,99.90
2023-11-22T23:12:47.255Z,99.90
2023-11-22T23:15:14.348Z,99.90
2023-11-22T23:17:41.564Z,99.90
2023-11-22T23:20:12.213Z,99.90
2023-11-22T23:22:43.512Z,99.90
2023-11-22T23:25:11.953Z,99.90
2023-11-22T23:27:38.780Z,99.90
2023-11-22T23:30:12.679Z,99.90
2023-11-22T23:32:40.538Z,99.90
2023-11-22T23:35:12.267Z,99.90
2023-11-22T23:37:47.015Z,99.90
2023-11-22T23:40:15.225Z,99.90
2023-11-22T23:42:42.440Z,99.90
2023-11-22T23:45:13.302Z,99.90
2023-11-22T23:47:40.729Z,99.90
2023-11-22T23:50:10.407Z,99.90
2023-11-22T23:52:37.638Z,99.90
2023-11-22T23:55:08.049Z,99.90
2023-11-22T23:57:37.883Z,99.90
